Flight Track Log - Related Links

Times and Time Zones

All times are in EDT time to prevent confusion due to time zone crossing. See the N234CE flight status page for this flight to view local times or setup timezone preferences in your user account.

Time Position Orientation Groundspeed Altitude Reporting Facility
EDT Latitude Longitude Course Direction KTS MPH feet Rate Location/Type
Thu 06:51:28 PM 64.7500 -147.9833 232° Southwest 120 138 3,900  Level Anchorage Center
Thu 06:52:27 PM 64.7333 -148.0500 240° Southwest 110 127 5,000 1,150 Climbing Anchorage Center
Thu 06:53:28 PM 64.7333 -148.1167 270° West 110 127 6,200 1,140 Climbing Anchorage Center
Thu 06:54:28 PM 64.7167 -148.2000 245° Southwest 130 150 7,300 1,200 Climbing Anchorage Center
Thu 06:55:00 PM 64.8151 -147.8564 240° Southwest  Level Estimated
Thu 06:55:28 PM 64.7000 -148.2667 240° Southwest 120 138 8,600  Level Anchorage Center
Thu 06:56:00 PM 64.8151 -147.8564 245° Southwest  Level Estimated
Thu 06:56:28 PM 64.7000 -148.3500 270° West 120 138 9,600  Level Anchorage Center
Thu 06:57:00 PM 64.8151 -147.8564 232° Southwest  Level Estimated
Thu 06:57:28 PM 64.6833 -148.4167 240° Southwest 140 161 10,500  Level Anchorage Center
Thu 06:58:28 PM 64.6667 -148.4833 240° Southwest 110 127 11,400 1,000 Climbing Anchorage Center
Thu 06:59:28 PM 64.6500 -148.5667 245° Southwest 130 150 12,500 1,000 Climbing Anchorage Center
Thu 07:00:28 PM 64.6500 -148.6500 270° West 130 150 13,400 992 Climbing Anchorage Center
Thu 07:01:29 PM 64.6333 -148.7333 245° Southwest 130 150 14,500 950 Climbing Anchorage Center
Thu 07:02:28 PM 64.6167 -148.8000 240° Southwest 160 184 15,300 958 Climbing Anchorage Center
Thu 07:03:28 PM 64.6167 -148.8833 270° West 140 161 16,400 942 Climbing Anchorage Center
Thu 07:04:29 PM 64.6000 -148.9667 245° Southwest 140 161 17,200 793 Climbing Anchorage Center
Thu 07:05:29 PM 64.5833 -149.0500 245° Southwest 130 150 18,000 750 Climbing Anchorage Center
Thu 07:06:29 PM 64.5833 -149.1167 270° West 170 196 18,700 700 Climbing Anchorage Center
Thu 07:07:29 PM 64.6333 -149.1167 360° North 160 184 19,400 750 Climbing Anchorage Center
Thu 07:08:29 PM 64.6667 -149.1000 12° North 180 207 20,200 850 Climbing Anchorage Center
Thu 07:09:29 PM 64.7167 -149.0833 North 150 173 21,100 900 Climbing Anchorage Center
Thu 07:10:29 PM 64.7500 -149.0833 360° North 150 173 22,000 750 Climbing Anchorage Center
Thu 07:11:29 PM 64.8000 -149.0667 North 160 184 22,600 700 Climbing Anchorage Center
Thu 07:12:29 PM 64.8333 -149.0500 12° North 150 173 23,400 694 Climbing Anchorage Center
Thu 07:13:30 PM 64.8833 -149.0333 North 160 184 24,000 300 Climbing Anchorage Center
Thu 07:14:29 PM 64.9167 -149.0333 360° North 160 184 24,000  Level Anchorage Center
Thu 07:15:30 PM 64.9667 -149.0333 360° North 150 173 24,000 -464 Level Anchorage Center
Thu 07:17:30 PM 65.0667 -149.0000 North 210 242 22,600 -967 Descending Anchorage Center
Thu 07:18:30 PM 65.1333 -149.0000 360° North 230 265 21,100 -800 Descending Anchorage Center
Thu 07:19:30 PM 65.1833 -148.9833 North 190 219 21,000 -50 Descending Anchorage Center
Thu 07:20:30 PM 65.2333 -148.9500 16° North 170 196 21,000 -350 Level Anchorage Center
Thu 07:21:30 PM 65.2667 -148.9333 12° North 160 184 20,300 -1,500 Descending Anchorage Center
Thu 07:22:30 PM 65.3333 -148.9333 360° North 230 265 18,000 -1,140 Descending Anchorage Center
Thu 07:23:31 PM 65.3833 -148.9167 North 200 230 18,000  Level Anchorage Center
Thu 07:24:31 PM 65.3667 -148.8500 121° Southeast 160 184 18,000 -250 Level Anchorage Center
Thu 07:25:31 PM 65.3333 -148.8333 168° South 160 184 17,500 -1,150 Descending Anchorage Center
Thu 07:26:31 PM 65.2833 -148.8333 180° South 190 219 15,700 -1,200 Descending Anchorage Center
Thu 07:27:31 PM 65.2333 -148.8167 172° South 180 207 15,100 -300 Descending Anchorage Center
Thu 07:28:31 PM 65.1833 -148.8000 172° South 150 173 15,100 -450 Level Anchorage Center
Thu 07:29:31 PM 65.1500 -148.7833 168° South 180 207 14,200 -1,537 Descending Anchorage Center
Thu 07:30:32 PM 65.0833 -148.7667 174° South 210 242 12,000 -1,041 Descending Anchorage Center
Thu 07:31:32 PM 65.0500 -148.7667 180° South 140 161 12,100 50 Climbing Anchorage Center
Thu 07:32:31 PM 65.0167 -148.7500 168° South 140 161 12,100 -550 Level Anchorage Center
Thu 07:33:32 PM 64.9667 -148.7500 180° South 160 184 11,000 -1,041 Descending Anchorage Center
Thu 07:34:32 PM 64.9167 -148.7333 172° South 170 196 10,000 -500 Descending Anchorage Center
Thu 07:35:32 PM 64.8833 -148.7333 180° South 150 173 10,000 -150 Level Anchorage Center
Thu 07:36:32 PM 64.8333 -148.7167 172° South 160 184 9,700 -850 Descending Anchorage Center
Thu 07:37:32 PM 64.7833 -148.7000 172° South 190 219 8,300 -850 Descending Anchorage Center
Thu 07:38:32 PM 64.7333 -148.6833 172° South 170 196 8,000 -150 Descending Anchorage Center
Thu 07:39:32 PM 64.6833 -148.6667 172° South 150 173 8,000 -300 Level Anchorage Center
Thu 07:40:32 PM 64.6500 -148.6500 168° South 150 173 7,400 -1,000 Descending Anchorage Center
Thu 07:41:32 PM 64.6000 -148.6333 172° South 190 219 6,000 -694 Descending Anchorage Center
Thu 07:42:33 PM 64.5500 -148.6167 172° South 140 161 6,000 -517 Level Anchorage Center
Thu 07:44:03 PM 64.5000 -148.6000 172° South 180 207 4,700 -867 Descending Anchorage Center

Login

Don't have an account? Register now (free) for customized features, flight alerts, and more!